createdAt,value
2022-08-22T00:01:32.067Z,3.20
2022-08-22T00:02:48.064Z,2.55
2022-08-22T00:03:06.994Z,2.83
2022-08-22T00:04:34.524Z,3.30
2022-08-22T00:07:10.518Z,2.85
2022-08-22T00:10:08.847Z,3.28
2022-08-22T00:12:49.458Z,3.17
2022-08-22T00:15:42.979Z,2.80
2022-08-22T00:18:29.501Z,2.95
2022-08-22T00:21:26.376Z,3.30
2022-08-22T00:24:27.639Z,2.83
2022-08-22T00:27:18.450Z,3.55
2022-08-22T00:30:03.569Z,3.15
2022-08-22T00:32:40.146Z,3.70
2022-08-22T00:35:32.389Z,3.13
2022-08-22T00:38:13.154Z,3.13
2022-08-22T00:41:03.866Z,3.20
2022-08-22T00:43:33.853Z,3.63
2022-08-22T00:46:23.596Z,3.20
2022-08-22T00:49:18.387Z,3.30
2022-08-22T00:51:54.334Z,3.58
2022-08-22T00:54:58.018Z,3.70
2022-08-22T00:57:43.168Z,3.30
2022-08-22T01:00:16.701Z,3.75
2022-08-22T01:06:00.141Z,3.83
2022-08-22T01:08:50.993Z,3.90
2022-08-22T01:11:48.500Z,3.92
2022-08-22T01:14:35.087Z,4.40
2022-08-22T01:17:26.910Z,3.90
2022-08-22T01:19:59.639Z,4.78
2022-08-22T01:23:07.135Z,4.10
2022-08-22T01:26:19.488Z,4.78
2022-08-22T01:29:09.495Z,4.68
2022-08-22T01:31:59.557Z,4.88
2022-08-22T01:34:39.985Z,4.70
2022-08-22T01:37:28.775Z,5.10
2022-08-22T01:40:00.022Z,5.22
2022-08-22T01:43:05.209Z,4.60
2022-08-22T01:48:58.435Z,4.65
2022-08-22T01:52:19.643Z,4.63
2022-08-22T01:55:06.724Z,4.90
2022-08-22T01:57:50.637Z,5.43
2022-08-22T02:00:34.823Z,5.13
2022-08-22T02:03:32.654Z,5.45
2022-08-22T02:06:05.510Z,5.07
2022-08-22T02:08:47.991Z,5.10
2022-08-22T02:11:52.158Z,5.00
2022-08-22T02:17:32.757Z,5.18
2022-08-22T02:20:21.369Z,5.18
2022-08-22T02:22:57.427Z,5.03
2022-08-22T02:25:33.797Z,5.20
2022-08-22T02:28:38.575Z,5.07
2022-08-22T02:31:46.851Z,4.60
2022-08-22T02:34:35.821Z,5.60
2022-08-22T02:37:34.841Z,5.10
2022-08-22T02:43:11.352Z,5.60
2022-08-22T02:45:53.193Z,4.97
2022-08-22T02:48:39.435Z,4.95
2022-08-22T02:51:57.869Z,5.00
2022-08-22T02:54:39.014Z,4.93
2022-08-22T02:57:14.842Z,5.45
2022-08-22T03:00:32.262Z,5.45
2022-08-22T03:03:14.462Z,5.35
2022-08-22T03:05:51.497Z,5.28
2022-08-22T03:08:34.581Z,5.40
2022-08-22T03:11:29.488Z,5.32
2022-08-22T03:17:10.714Z,5.03
2022-08-22T03:20:06.856Z,6.07
2022-08-22T03:22:56.260Z,6.05
2022-08-22T03:25:33.924Z,5.80
2022-08-22T03:28:17.525Z,6.07
2022-08-22T03:31:26.135Z,6.20
2022-08-22T03:34:26.504Z,5.78
2022-08-22T03:37:06.279Z,5.78
2022-08-22T03:40:05.825Z,6.53
2022-08-22T03:43:03.588Z,6.32
2022-08-22T03:46:21.057Z,6.13
2022-08-22T03:49:32.956Z,6.63
2022-08-22T03:53:02.602Z,6.00
2022-08-22T03:56:20.860Z,6.78
2022-08-22T03:59:16.657Z,6.72
2022-08-22T04:01:49.543Z,6.10
2022-08-22T04:07:33.260Z,6.05
2022-08-22T04:10:40.923Z,6.13
2022-08-22T04:13:38.996Z,6.03
2022-08-22T04:16:29.679Z,5.85
2022-08-22T04:19:12.354Z,5.43
2022-08-22T04:22:19.439Z,6.25
2022-08-22T04:25:10.220Z,5.70
2022-08-22T04:27:49.936Z,6.20
2022-08-22T04:30:16.712Z,6.30
2022-08-22T04:32:57.116Z,5.45
2022-08-22T04:35:32.737Z,6.13
2022-08-22T04:38:11.461Z,5.63
2022-08-22T04:41:04.354Z,5.82
2022-08-22T04:43:37.059Z,6.03
2022-08-22T04:46:52.027Z,6.30
2022-08-22T04:49:29.143Z,6.00
2022-08-22T04:52:29.394Z,6.10
2022-08-22T04:55:36.500Z,5.97
2022-08-22T04:58:10.987Z,6.18
2022-08-22T05:00:44.964Z,6.25
2022-08-22T05:03:16.945Z,5.30
2022-08-22T05:05:46.857Z,5.72
2022-08-22T05:08:20.127Z,5.93
2022-08-22T05:10:50.696Z,5.35
2022-08-22T05:13:24.079Z,5.78
2022-08-22T05:18:31.401Z,5.57
2022-08-22T05:21:02.262Z,5.85
2022-08-22T05:23:38.087Z,6.20
2022-08-22T05:26:07.424Z,6.25
2022-08-22T05:28:41.726Z,6.07
2022-08-22T05:31:18.775Z,6.63
2022-08-22T05:33:56.625Z,6.50
2022-08-22T05:36:31.280Z,6.50
2022-08-22T05:39:04.982Z,7.30
2022-08-22T05:41:36.771Z,6.97
2022-08-22T05:44:04.727Z,7.10
2022-08-22T05:46:42.149Z,6.50
2022-08-22T05:49:19.163Z,7.22
2022-08-22T05:51:55.598Z,7.70
2022-08-22T05:54:33.579Z,7.72
2022-08-22T05:57:15.577Z,7.95
2022-08-22T05:59:43.890Z,7.43
2022-08-22T06:02:19.458Z,8.48
2022-08-22T06:04:51.380Z,7.30
2022-08-22T06:07:27.786Z,7.82
2022-08-22T06:10:24.725Z,8.00
2022-08-22T06:13:27.234Z,7.88
2022-08-22T06:16:20.468Z,7.63
2022-08-22T06:18:50.656Z,7.90
2022-08-22T06:21:31.501Z,8.63
2022-08-22T06:24:02.866Z,7.75
2022-08-22T06:26:36.407Z,8.32
2022-08-22T06:29:07.227Z,8.40
2022-08-22T06:31:44.935Z,8.27
2022-08-22T06:34:15.742Z,7.88
2022-08-22T06:36:48.647Z,7.55
2022-08-22T06:39:21.274Z,8.13
2022-08-22T06:41:53.820Z,7.70
2022-08-22T06:44:25.588Z,7.75
2022-08-22T06:46:58.605Z,8.40
2022-08-22T06:49:27.467Z,7.72
2022-08-22T06:52:00.185Z,8.32
2022-08-22T06:54:34.354Z,8.45
2022-08-22T06:57:03.274Z,8.40
2022-08-22T06:59:35.377Z,8.15
2022-08-22T07:02:17.021Z,7.93
2022-08-22T07:04:44.014Z,8.30
2022-08-22T07:07:10.766Z,8.57
2022-08-22T07:09:41.435Z,8.25
2022-08-22T07:12:19.445Z,8.70
2022-08-22T07:14:51.948Z,7.72
2022-08-22T07:17:23.756Z,8.10
2022-08-22T07:20:35.578Z,7.68
2022-08-22T07:23:12.418Z,8.10
2022-08-22T07:25:54.008Z,8.52
2022-08-22T07:28:51.581Z,8.18
2022-08-22T07:32:03.518Z,7.32
2022-08-22T07:38:56.275Z,8.38
2022-08-22T07:41:30.118Z,8.25
2022-08-22T07:44:16.497Z,8.52
2022-08-22T07:47:06.450Z,7.82
2022-08-22T07:49:41.126Z,7.82
2022-08-22T07:52:17.785Z,8.13
2022-08-22T07:55:11.129Z,7.50
2022-08-22T07:57:43.529Z,7.38
2022-08-22T08:00:20.107Z,8.15
2022-08-22T08:02:51.414Z,7.90
2022-08-22T08:05:20.241Z,7.38
2022-08-22T08:07:48.355Z,7.88
2022-08-22T08:10:36.730Z,8.20
2022-08-22T08:13:08.999Z,8.07
2022-08-22T08:15:38.450Z,7.80
2022-08-22T08:18:12.086Z,7.53
2022-08-22T08:20:39.630Z,7.97
2022-08-22T08:23:10.547Z,7.00
2022-08-22T08:26:01.539Z,7.60
2022-08-22T08:28:34.891Z,8.38
2022-08-22T08:33:50.317Z,6.95
2022-08-22T08:36:41.943Z,7.60
2022-08-22T08:39:35.500Z,6.45
2022-08-22T08:45:15.472Z,7.55
2022-08-22T08:48:08.365Z,5.72
2022-08-22T08:50:53.462Z,6.57
2022-08-22T08:53:27.096Z,7.05
2022-08-22T08:55:58.619Z,6.20
2022-08-22T08:58:41.405Z,6.55
2022-08-22T09:16:04.938Z,6.00
2022-08-22T09:19:09.869Z,6.80
2022-08-22T09:22:14.343Z,6.30
2022-08-22T09:25:18.883Z,6.28
2022-08-22T09:28:06.582Z,5.35
2022-08-22T09:31:00.248Z,5.38
2022-08-22T09:36:06.760Z,5.07
2022-08-22T09:38:51.481Z,4.90
2022-08-22T09:41:37.892Z,4.80
2022-08-22T09:48:43.356Z,4.45
2022-08-22T09:51:31.966Z,4.45
2022-08-22T09:54:15.936Z,4.65
2022-08-22T09:56:58.360Z,4.22
2022-08-22T09:59:51.754Z,3.78
2022-08-22T10:02:37.727Z,3.50
2022-08-22T10:05:40.961Z,3.40
2022-08-22T10:08:30.930Z,3.22
2022-08-22T10:11:21.081Z,3.60
2022-08-22T10:13:57.253Z,3.55
2022-08-22T10:16:47.253Z,2.67
2022-08-22T10:19:27.608Z,2.63
2022-08-22T10:22:32.140Z,2.85
2022-08-22T10:25:16.343Z,3.33
2022-08-22T10:28:14.816Z,2.70
2022-08-22T10:31:09.793Z,2.63
2022-08-22T10:33:46.065Z,3.42
2022-08-22T10:36:41.303Z,3.38
2022-08-22T10:42:28.629Z,3.70
2022-08-22T10:45:36.345Z,3.10
2022-08-22T10:48:07.249Z,2.90
2022-08-22T10:50:45.038Z,3.33
2022-08-22T10:53:51.977Z,3.28
2022-08-22T10:56:49.542Z,3.72
2022-08-22T10:59:29.616Z,3.55
2022-08-22T11:02:05.344Z,3.60
2022-08-22T11:05:07.202Z,3.03
2022-08-22T11:07:50.076Z,3.00
2022-08-22T11:10:45.205Z,2.97
2022-08-22T11:13:31.726Z,3.60
2022-08-22T11:16:08.977Z,2.90
2022-08-22T11:19:15.181Z,3.17
2022-08-22T11:22:00.189Z,3.00
2022-08-22T11:24:34.640Z,3.20
2022-08-22T11:27:13.002Z,3.15
2022-08-22T11:29:57.613Z,3.00
2022-08-22T11:32:59.477Z,3.08
2022-08-22T11:35:37.141Z,3.35
2022-08-22T11:38:36.113Z,3.17
2022-08-22T11:41:15.433Z,2.83
2022-08-22T11:44:15.505Z,3.22
2022-08-22T11:46:49.787Z,3.00
2022-08-22T11:49:31.787Z,3.00
2022-08-22T11:52:06.119Z,3.50
2022-08-22T11:55:16.778Z,4.45
2022-08-22T11:57:48.491Z,3.38
2022-08-22T12:00:50.382Z,3.33
2022-08-22T12:03:39.388Z,3.03
2022-08-22T12:06:20.949Z,3.50
2022-08-22T12:09:15.801Z,3.30
2022-08-22T12:12:15.858Z,2.72
2022-08-22T12:15:12.391Z,2.42
2022-08-22T12:18:01.518Z,3.20
2022-08-22T12:20:46.447Z,3.30
2022-08-22T12:23:50.272Z,3.00
2022-08-22T12:26:56.798Z,2.93
2022-08-22T12:29:45.458Z,3.33
2022-08-22T12:32:27.456Z,2.80
2022-08-22T12:35:32.371Z,2.33
2022-08-22T12:38:28.906Z,2.80
2022-08-22T12:41:36.357Z,2.67
2022-08-22T12:44:18.440Z,2.90
2022-08-22T12:47:17.432Z,2.72
2022-08-22T12:50:06.282Z,2.60
2022-08-22T12:53:02.374Z,2.78
2022-08-22T12:55:37.998Z,2.63
2022-08-22T12:58:41.524Z,2.53
2022-08-22T13:01:10.926Z,2.25
2022-08-22T13:03:46.254Z,2.50
2022-08-22T13:06:34.970Z,2.22
2022-08-22T13:09:15.523Z,2.38
2022-08-22T13:11:45.131Z,2.70
2022-08-22T13:14:19.551Z,2.53
2022-08-22T13:16:53.567Z,2.60
2022-08-22T13:19:24.374Z,2.65
2022-08-22T13:22:02.954Z,2.50
2022-08-22T13:24:52.452Z,2.38
2022-08-22T13:27:34.650Z,2.20
2022-08-22T13:30:12.551Z,2.60
2022-08-22T13:32:45.763Z,2.05
2022-08-22T13:35:51.938Z,2.22
2022-08-22T13:38:49.124Z,2.60
2022-08-22T13:41:25.908Z,2.47
2022-08-22T13:44:08.854Z,2.85
2022-08-22T13:46:52.804Z,2.97
2022-08-22T13:49:36.725Z,2.50
2022-08-22T13:52:28.775Z,2.45
2022-08-22T13:55:01.290Z,2.78
2022-08-22T13:57:34.886Z,2.80
2022-08-22T14:00:29.015Z,2.67
2022-08-22T14:05:34.553Z,2.72
2022-08-22T14:08:20.949Z,2.60
2022-08-22T14:10:55.179Z,2.22
2022-08-22T14:13:32.938Z,2.40
2022-08-22T14:16:36.786Z,2.65
2022-08-22T14:19:52.722Z,2.58
2022-08-22T14:22:31.931Z,2.15
2022-08-22T14:25:07.255Z,2.90
2022-08-22T14:27:34.477Z,2.35
2022-08-22T14:30:13.338Z,2.40
2022-08-22T14:33:05.091Z,2.83
2022-08-22T14:35:37.885Z,2.58
2022-08-22T14:38:29.819Z,2.47
2022-08-22T14:41:05.383Z,2.47
2022-08-22T14:43:32.363Z,2.28
2022-08-22T14:46:45.411Z,2.50
2022-08-22T14:49:29.484Z,2.75
2022-08-22T14:52:04.348Z,2.47
2022-08-22T14:54:37.159Z,2.72
2022-08-22T14:57:10.128Z,2.65
2022-08-22T14:59:43.346Z,2.30
2022-08-22T15:02:27.992Z,2.03
2022-08-22T15:04:56.322Z,2.33
2022-08-22T15:07:27.358Z,2.30
2022-08-22T15:10:03.110Z,2.30
2022-08-22T15:12:37.718Z,2.50
2022-08-22T15:15:27.584Z,2.35
2022-08-22T15:17:55.166Z,2.22
2022-08-22T15:20:33.038Z,2.30
2022-08-22T15:23:14.735Z,2.70
2022-08-22T15:25:47.062Z,2.40
2022-08-22T15:28:20.152Z,2.50
2022-08-22T15:30:56.581Z,2.35
2022-08-22T15:33:40.085Z,2.63
2022-08-22T15:36:20.860Z,2.17
2022-08-22T15:39:25.983Z,2.65
2022-08-22T15:41:54.914Z,2.30
2022-08-22T15:44:32.624Z,2.83
2022-08-22T15:47:26.643Z,2.85
2022-08-22T15:49:59.766Z,2.53
2022-08-22T15:52:32.179Z,2.88
2022-08-22T15:55:16.095Z,2.20
2022-08-22T15:57:52.241Z,2.80
2022-08-22T16:00:36.589Z,2.55
2022-08-22T16:03:27.849Z,2.55
2022-08-22T16:06:01.835Z,2.38
2022-08-22T16:08:49.202Z,2.33
2022-08-22T16:11:33.727Z,2.60
2022-08-22T16:14:24.164Z,2.88
2022-08-22T16:16:56.573Z,2.28
2022-08-22T16:19:26.111Z,2.50
2022-08-22T16:21:55.959Z,2.20
2022-08-22T16:24:22.722Z,2.55
2022-08-22T16:26:52.162Z,2.28
2022-08-22T16:29:41.416Z,2.28
2022-08-22T16:32:11.784Z,2.20
2022-08-22T16:34:44.032Z,2.60
2022-08-22T16:37:18.339Z,2.33
2022-08-22T16:39:58.002Z,2.30
2022-08-22T16:42:38.028Z,2.28
2022-08-22T16:45:13.186Z,2.28
2022-08-22T16:50:21.222Z,2.33
2022-08-22T16:52:51.171Z,2.22
2022-08-22T16:55:30.102Z,2.03
2022-08-22T16:58:07.213Z,2.35
2022-08-22T17:00:58.005Z,1.88
2022-08-22T17:03:51.319Z,2.20
2022-08-22T17:06:49.087Z,2.50
2022-08-22T17:09:46.792Z,2.33
2022-08-22T17:12:40.994Z,2.20
2022-08-22T17:15:34.155Z,2.42
2022-08-22T17:18:24.332Z,2.33
2022-08-22T17:21:10.423Z,1.75
2022-08-22T17:23:49.353Z,2.15
2022-08-22T17:26:34.410Z,2.50
2022-08-22T17:29:19.412Z,2.22
2022-08-22T17:32:21.822Z,2.30
2022-08-22T17:34:57.322Z,2.30
2022-08-22T17:37:35.931Z,2.10
2022-08-22T17:40:38.230Z,2.17
2022-08-22T17:43:48.351Z,2.28
2022-08-22T17:46:52.431Z,2.35
2022-08-22T17:49:28.995Z,2.27
2022-08-22T17:52:07.140Z,2.47
2022-08-22T17:54:45.887Z,2.22
2022-08-22T17:57:34.474Z,1.98
2022-08-22T18:00:08.539Z,2.38
2022-08-22T18:02:50.797Z,1.98
2022-08-22T18:05:20.675Z,2.53
2022-08-22T18:07:56.609Z,2.45
2022-08-22T18:10:42.577Z,2.80
2022-08-22T18:13:21.813Z,2.70
2022-08-22T18:15:57.629Z,2.90
2022-08-22T18:18:40.767Z,2.20
2022-08-22T18:21:25.019Z,2.45
2022-08-22T18:23:59.325Z,2.50
2022-08-22T18:26:42.503Z,2.00
2022-08-22T18:29:16.263Z,2.50
2022-08-22T18:32:11.369Z,2.03
2022-08-22T18:46:38.525Z,2.60
2022-08-22T18:49:16.017Z,2.35
2022-08-22T18:51:43.486Z,2.47
2022-08-22T18:54:15.268Z,2.13
2022-08-22T18:57:30.814Z,2.20
2022-08-22T18:59:57.542Z,2.15
2022-08-22T19:03:10.629Z,2.70
2022-08-22T19:05:59.250Z,2.20
2022-08-22T19:08:53.005Z,2.20
2022-08-22T19:11:42.883Z,2.53
2022-08-22T19:14:18.708Z,2.35
2022-08-22T19:17:23.041Z,2.60
2022-08-22T19:20:18.225Z,2.30
2022-08-22T19:22:45.347Z,2.88
2022-08-22T19:25:20.137Z,2.30
2022-08-22T19:28:11.667Z,2.92
2022-08-22T19:30:50.654Z,2.20
2022-08-22T19:33:19.274Z,2.30
2022-08-22T19:36:04.334Z,2.47
2022-08-22T19:38:50.579Z,2.83
2022-08-22T19:41:59.605Z,2.10
2022-08-22T19:44:26.255Z,2.28
2022-08-22T19:47:08.520Z,2.50
2022-08-22T19:49:38.704Z,2.60
2022-08-22T19:52:30.361Z,2.33
2022-08-22T19:55:22.422Z,2.92
2022-08-22T19:57:52.316Z,2.58
2022-08-22T20:00:27.571Z,2.55
2022-08-22T20:03:03.306Z,3.00
2022-08-22T20:05:58.648Z,2.67
2022-08-22T20:08:58.854Z,2.60
2022-08-22T20:11:28.902Z,2.55
2022-08-22T20:14:30.569Z,2.53
2022-08-22T20:17:03.107Z,3.00
2022-08-22T20:20:17.731Z,3.25
2022-08-22T20:23:25.108Z,3.35
2022-08-22T20:25:55.927Z,2.90
2022-08-22T20:28:40.333Z,3.38
2022-08-22T20:31:12.394Z,3.47
2022-08-22T20:33:46.175Z,3.58
2022-08-22T20:36:28.489Z,3.85
2022-08-22T20:39:05.919Z,3.28
2022-08-22T20:41:35.794Z,3.70
2022-08-22T20:44:12.565Z,3.65
2022-08-22T20:46:53.290Z,3.67
2022-08-22T20:49:28.647Z,4.05
2022-08-22T20:52:07.412Z,2.85
2022-08-22T20:54:38.041Z,3.22
2022-08-22T20:57:17.864Z,3.72
2022-08-22T20:59:57.993Z,3.60
2022-08-22T21:02:34.516Z,3.30
2022-08-22T21:05:06.864Z,3.40
2022-08-22T21:07:37.895Z,3.55
2022-08-22T21:10:25.607Z,3.60
2022-08-22T21:13:11.930Z,3.50
2022-08-22T21:15:45.055Z,3.05
2022-08-22T21:20:41.505Z,3.45
2022-08-22T21:23:13.983Z,3.10
2022-08-22T21:25:50.749Z,3.13
2022-08-22T21:29:02.202Z,2.90
2022-08-22T21:31:33.813Z,2.75
2022-08-22T21:34:02.790Z,3.63
2022-08-22T21:36:31.778Z,3.20
2022-08-22T21:39:03.874Z,4.70
2022-08-22T21:41:38.266Z,3.47
2022-08-22T21:44:30.703Z,4.05
2022-08-22T21:47:14.877Z,3.30
2022-08-22T21:50:05.081Z,3.50
2022-08-22T21:52:36.266Z,3.13
2022-08-22T21:55:30.057Z,3.38
2022-08-22T22:01:35.626Z,3.17
2022-08-22T22:04:11.546Z,3.42
2022-08-22T22:06:38.421Z,3.50
2022-08-22T22:09:09.142Z,3.65
2022-08-22T22:11:39.989Z,3.08
2022-08-22T22:14:10.246Z,3.83
2022-08-22T22:16:38.394Z,3.75
2022-08-22T22:19:07.908Z,3.63
2022-08-22T22:21:38.660Z,3.25
2022-08-22T22:24:05.594Z,3.60
2022-08-22T22:26:32.635Z,3.50
2022-08-22T22:28:59.499Z,3.47
2022-08-22T22:31:26.504Z,3.53
2022-08-22T22:33:53.350Z,3.25
2022-08-22T22:36:26.735Z,3.50
2022-08-22T22:38:54.068Z,3.20
2022-08-22T22:41:38.998Z,3.22
2022-08-22T22:44:05.722Z,3.50
2022-08-22T22:46:32.701Z,3.70
2022-08-22T22:48:59.475Z,3.47
2022-08-22T22:51:26.201Z,3.53
2022-08-22T22:53:52.919Z,3.35
2022-08-22T22:56:23.822Z,3.55
2022-08-22T22:59:13.110Z,3.53
2022-08-22T23:02:00.742Z,3.35
2022-08-22T23:04:28.198Z,3.95
2022-08-22T23:06:54.961Z,3.60
2022-08-22T23:09:21.906Z,3.47
2022-08-22T23:11:54.943Z,3.35
2022-08-22T23:14:23.008Z,3.70
2022-08-22T23:16:49.814Z,3.55
2022-08-22T23:19:17.535Z,3.67
2022-08-22T23:21:48.986Z,3.88
2022-08-22T23:24:18.959Z,3.90
2022-08-22T23:26:45.832Z,3.65
2022-08-22T23:29:12.595Z,3.17
2022-08-22T23:32:00.811Z,3.45
2022-08-22T23:34:37.270Z,3.67
2022-08-22T23:37:08.207Z,3.70
2022-08-22T23:39:38.179Z,3.55
2022-08-22T23:42:06.982Z,3.67
2022-08-22T23:44:35.988Z,3.60
2022-08-22T23:47:07.260Z,3.50
2022-08-22T23:49:34.248Z,4.00
2022-08-22T23:52:01.812Z,3.85
2022-08-22T23:54:28.819Z,4.05
2022-08-22T23:56:58.669Z,4.43
2022-08-22T23:59:33.534Z,4.55
